AIC4501 KATL-KORL
Flight info
| Callsign | AIC4501 |
|---|---|
| Flight time | 1h 0m |
| Altitude | 35000 |
| Route | SMLTZ3 WALET MJKAL JAFAR3 |
| Aircraft | B737/M-SDE2E3FGHIRWXY/LB1 |
Departure
| Time | 2026-05-04 23:27 |
|---|---|
| Airport | Hartsfield Jackson Atlanta International Airport (KATL) |
Arrival
| Time | 2026-05-05 00:28 |
|---|---|
| Airport | Orlando Executive Airport (KORL) |
| Time | Latitude | Longitude | Altitude | Speed | Heading |
|---|---|---|---|---|---|
| 2026-05-04 23:11 | 33.63808 | -84.42875 | 1007 ft | 0 kts | 287° |
| 2026-05-04 23:21 | 33.63804 | -84.42860 | 1007 ft | 2 kts | 287° |
| 2026-05-04 23:21 | 33.63800 | -84.42841 | 1007 ft | 2 kts | 287° |
| 2026-05-04 23:22 | 33.63796 | -84.42822 | 1007 ft | 2 kts | 255° |
| 2026-05-04 23:22 | 33.63804 | -84.42806 | 1007 ft | 2 kts | 195° |
| 2026-05-04 23:22 | 33.63805 | -84.42806 | 1007 ft | 0 kts | 195° |
| 2026-05-04 23:23 | 33.63802 | -84.42806 | 1007 ft | 1 kts | 191° |
| 2026-05-04 23:23 | 33.63774 | -84.42807 | 1007 ft | 7 kts | 180° |
| 2026-05-04 23:23 | 33.63708 | -84.42800 | 1007 ft | 12 kts | 168° |
| 2026-05-04 23:23 | 33.63614 | -84.42757 | 1007 ft | 17 kts | 143° |
| 2026-05-04 23:24 | 33.63582 | -84.42614 | 1008 ft | 21 kts | 88° |
| 2026-05-04 23:24 | 33.63583 | -84.42419 | 1008 ft | 26 kts | 90° |
| 2026-05-04 23:24 | 33.63583 | -84.42182 | 1008 ft | 31 kts | 90° |
| 2026-05-04 23:24 | 33.63581 | -84.41907 | 1007 ft | 35 kts | 90° |
| 2026-05-04 23:25 | 33.63581 | -84.41600 | 1007 ft | 39 kts | 90° |
| 2026-05-04 23:25 | 33.63583 | -84.41259 | 1007 ft | 41 kts | 90° |
| 2026-05-04 23:25 | 33.63576 | -84.40975 | 1007 ft | 26 kts | 107° |
| 2026-05-04 23:25 | 33.63488 | -84.40931 | 1008 ft | 9 kts | 222° |
| 2026-05-04 23:26 | 33.63473 | -84.40972 | 1008 ft | 0 kts | 259° |
| 2026-05-04 23:26 | 33.63472 | -84.40975 | 1008 ft | 2 kts | 261° |
| 2026-05-04 23:26 | 33.63469 | -84.41225 | 1006 ft | 75 kts | 270° |
| 2026-05-04 23:26 | 33.63472 | -84.42205 | 1008 ft | 155 kts | 270° |
| 2026-05-04 23:27 | 33.63470 | -84.43739 | 1072 ft | 212 kts | 269° |
| 2026-05-04 23:27 | 33.63473 | -84.45779 | 1478 ft | 276 kts | 269° |
| 2026-05-04 23:27 | 33.63438 | -84.48230 | 2049 ft | 310 kts | 266° |
| 2026-05-04 23:27 | 33.63366 | -84.50823 | 2496 ft | 295 kts | 266° |
| 2026-05-04 23:28 | 33.63317 | -84.53243 | 2677 ft | 288 kts | 266° |
| 2026-05-04 23:28 | 33.63277 | -84.55634 | 2818 ft | 283 kts | 267° |
| 2026-05-04 23:28 | 33.63243 | -84.57929 | 3850 ft | 268 kts | 266° |
| 2026-05-04 23:28 | 33.63209 | -84.60130 | 4131 ft | 263 kts | 266° |
| 2026-05-04 23:29 | 33.63175 | -84.62328 | 4524 ft | 263 kts | 266° |
| 2026-05-04 23:29 | 33.63141 | -84.64508 | 5246 ft | 266 kts | 266° |
| 2026-05-04 23:29 | 33.63105 | -84.66741 | 5979 ft | 268 kts | 266° |
| 2026-05-04 23:29 | 33.62627 | -84.68858 | 6725 ft | 264 kts | 234° |
| 2026-05-04 23:30 | 33.61249 | -84.70277 | 7434 ft | 266 kts | 203° |
| 2026-05-04 23:30 | 33.59440 | -84.70775 | 8130 ft | 270 kts | 184° |
| 2026-05-04 23:30 | 33.57542 | -84.70577 | 8829 ft | 276 kts | 173° |
| 2026-05-04 23:30 | 33.55637 | -84.70135 | 9506 ft | 281 kts | 170° |
| 2026-05-04 23:31 | 33.53710 | -84.69630 | 10178 ft | 286 kts | 170° |
| 2026-05-04 23:31 | 33.51733 | -84.69099 | 10699 ft | 297 kts | 170° |
| 2026-05-04 23:31 | 33.49670 | -84.68544 | 11072 ft | 312 kts | 169° |
| 2026-05-04 23:31 | 33.47537 | -84.67973 | 11508 ft | 324 kts | 169° |
| 2026-05-04 23:32 | 33.45309 | -84.67379 | 12099 ft | 331 kts | 169° |
| 2026-05-04 23:32 | 33.43100 | -84.66538 | 12738 ft | 339 kts | 154° |
| 2026-05-04 23:32 | 33.41108 | -84.64970 | 13424 ft | 345 kts | 144° |
| 2026-05-04 23:32 | 33.39229 | -84.63126 | 14089 ft | 351 kts | 140° |
| 2026-05-04 23:33 | 33.37429 | -84.61118 | 14718 ft | 356 kts | 137° |
| 2026-05-04 23:33 | 33.35697 | -84.59029 | 15366 ft | 360 kts | 136° |
| 2026-05-04 23:33 | 33.33936 | -84.56865 | 16039 ft | 364 kts | 137° |
| 2026-05-04 23:33 | 33.32139 | -84.54690 | 16709 ft | 368 kts | 137° |
| 2026-05-04 23:34 | 33.30324 | -84.52510 | 17382 ft | 372 kts | 137° |
| 2026-05-04 23:34 | 33.29083 | -84.51017 | 17830 ft | 375 kts | 138° |
| 2026-05-04 23:34 | 33.27256 | -84.48808 | 18459 ft | 380 kts | 138° |
| 2026-05-04 23:34 | 33.25395 | -84.46547 | 19009 ft | 384 kts | 138° |
| 2026-05-04 23:35 | 33.23500 | -84.44275 | 19553 ft | 388 kts | 138° |
| 2026-05-04 23:35 | 33.21566 | -84.41984 | 20098 ft | 392 kts | 138° |
| 2026-05-04 23:35 | 33.19618 | -84.39686 | 20630 ft | 396 kts | 139° |
| 2026-05-04 23:35 | 33.17645 | -84.37363 | 21182 ft | 400 kts | 139° |
| 2026-05-04 23:36 | 33.15679 | -84.35050 | 21691 ft | 404 kts | 139° |
| 2026-05-04 23:36 | 33.13663 | -84.32679 | 22206 ft | 408 kts | 139° |
| 2026-05-04 23:36 | 33.11633 | -84.30294 | 22715 ft | 412 kts | 139° |
| 2026-05-04 23:36 | 33.09580 | -84.27882 | 23220 ft | 416 kts | 138° |
| 2026-05-04 23:37 | 33.07505 | -84.25449 | 23705 ft | 419 kts | 138° |
| 2026-05-04 23:37 | 33.05408 | -84.22995 | 24124 ft | 423 kts | 138° |
| 2026-05-04 23:37 | 33.03306 | -84.20537 | 24581 ft | 426 kts | 139° |
| 2026-05-04 23:37 | 33.01168 | -84.18073 | 24986 ft | 429 kts | 139° |
| 2026-05-04 23:38 | 32.98874 | -84.15832 | 25391 ft | 426 kts | 151° |
| 2026-05-04 23:38 | 32.96268 | -84.14137 | 25800 ft | 426 kts | 158° |
| 2026-05-04 23:38 | 32.93599 | -84.12708 | 26115 ft | 423 kts | 161° |
| 2026-05-04 23:38 | 32.90896 | -84.11447 | 26080 ft | 412 kts | 164° |
| 2026-05-04 23:39 | 32.88193 | -84.10304 | 26145 ft | 413 kts | 165° |
| 2026-05-04 23:39 | 32.85445 | -84.09210 | 26476 ft | 419 kts | 166° |
| 2026-05-04 23:39 | 32.82657 | -84.08126 | 26819 ft | 424 kts | 166° |
| 2026-05-04 23:39 | 32.79828 | -84.07039 | 27174 ft | 428 kts | 167° |
| 2026-05-04 23:40 | 32.76968 | -84.05975 | 27530 ft | 432 kts | 167° |
| 2026-05-04 23:40 | 32.74078 | -84.04917 | 27863 ft | 435 kts | 167° |
| 2026-05-04 23:40 | 32.71177 | -84.03856 | 28199 ft | 439 kts | 167° |
| 2026-05-04 23:40 | 32.68247 | -84.02779 | 28557 ft | 442 kts | 167° |
| 2026-05-04 23:41 | 32.65287 | -84.01689 | 28919 ft | 445 kts | 167° |
| 2026-05-04 23:41 | 32.62348 | -84.00605 | 29280 ft | 448 kts | 167° |
| 2026-05-04 23:41 | 32.59362 | -83.99504 | 29640 ft | 451 kts | 167° |
| 2026-05-04 23:41 | 32.56356 | -83.98394 | 30003 ft | 454 kts | 167° |
| 2026-05-04 23:42 | 32.53328 | -83.97274 | 30324 ft | 456 kts | 167° |
| 2026-05-04 23:42 | 32.50330 | -83.96158 | 30353 ft | 446 kts | 167° |
| 2026-05-04 23:42 | 32.44443 | -83.93940 | 30457 ft | 448 kts | 167° |
| 2026-05-04 23:43 | 32.41448 | -83.92802 | 30666 ft | 454 kts | 167° |
| 2026-05-04 23:43 | 32.38421 | -83.91644 | 30876 ft | 460 kts | 167° |
| 2026-05-04 23:43 | 32.35367 | -83.90472 | 31119 ft | 464 kts | 167° |
| 2026-05-04 23:43 | 32.32292 | -83.89217 | 31365 ft | 469 kts | 164° |
| 2026-05-04 23:44 | 32.29291 | -83.87775 | 31628 ft | 474 kts | 162° |
| 2026-05-04 23:44 | 32.26258 | -83.86184 | 31879 ft | 478 kts | 160° |
| 2026-05-04 23:44 | 32.20210 | -83.82824 | 32311 ft | 481 kts | 160° |
| 2026-05-04 23:45 | 32.17188 | -83.81107 | 32596 ft | 483 kts | 160° |
| 2026-05-04 23:45 | 32.14147 | -83.79382 | 32905 ft | 485 kts | 161° |
| 2026-05-04 23:45 | 32.11090 | -83.77677 | 33203 ft | 487 kts | 161° |
| 2026-05-04 23:45 | 32.08011 | -83.75976 | 33482 ft | 489 kts | 161° |
| 2026-05-04 23:46 | 32.04915 | -83.74267 | 33761 ft | 492 kts | 161° |
| 2026-05-04 23:46 | 32.01800 | -83.72572 | 34055 ft | 494 kts | 162° |
| 2026-05-04 23:46 | 31.98664 | -83.70884 | 34353 ft | 495 kts | 162° |
| 2026-05-04 23:46 | 31.95562 | -83.69221 | 34633 ft | 496 kts | 162° |
| 2026-05-04 23:47 | 31.92415 | -83.67540 | 34917 ft | 497 kts | 162° |
| 2026-05-04 23:47 | 31.89251 | -83.65877 | 35033 ft | 495 kts | 163° |
| 2026-05-04 23:47 | 31.82988 | -83.62603 | 35032 ft | 492 kts | 163° |
| 2026-05-04 23:48 | 31.76774 | -83.59346 | 35039 ft | 493 kts | 163° |
| 2026-05-04 23:48 | 31.70469 | -83.56060 | 35042 ft | 496 kts | 163° |
| 2026-05-04 23:49 | 31.64185 | -83.52787 | 35050 ft | 495 kts | 163° |
| 2026-05-04 23:49 | 31.57905 | -83.49503 | 35056 ft | 495 kts | 163° |
| 2026-05-04 23:50 | 31.51616 | -83.46194 | 35060 ft | 495 kts | 163° |
| 2026-05-04 23:50 | 31.45331 | -83.42883 | 35026 ft | 495 kts | 163° |
| 2026-05-04 23:51 | 31.39030 | -83.39562 | 35026 ft | 495 kts | 163° |
| 2026-05-04 23:51 | 31.32776 | -83.36266 | 35037 ft | 497 kts | 163° |
| 2026-05-04 23:52 | 31.26434 | -83.32994 | 35038 ft | 497 kts | 164° |
| 2026-05-04 23:52 | 31.20095 | -83.29785 | 35022 ft | 496 kts | 164° |
| 2026-05-04 23:53 | 31.13736 | -83.26577 | 35025 ft | 497 kts | 164° |
| 2026-05-04 23:53 | 31.07423 | -83.23394 | 35026 ft | 497 kts | 164° |
| 2026-05-04 23:54 | 31.01051 | -83.20190 | 35020 ft | 498 kts | 164° |
| 2026-05-04 23:54 | 30.94667 | -83.16990 | 35022 ft | 498 kts | 164° |
| 2026-05-04 23:55 | 30.88355 | -83.13823 | 35043 ft | 493 kts | 164° |
| 2026-05-04 23:56 | 30.78937 | -83.09051 | 35045 ft | 493 kts | 161° |
| 2026-05-04 23:56 | 30.73072 | -83.04629 | 35062 ft | 508 kts | 148° |
| 2026-05-04 23:57 | 30.67556 | -82.99463 | 35089 ft | 510 kts | 145° |
| 2026-05-04 23:57 | 30.62232 | -82.94073 | 35095 ft | 512 kts | 142° |
| 2026-05-04 23:58 | 30.56976 | -82.88489 | 35103 ft | 512 kts | 142° |
| 2026-05-04 23:58 | 30.51742 | -82.82879 | 35112 ft | 512 kts | 142° |
| 2026-05-04 23:59 | 30.46510 | -82.77260 | 35122 ft | 512 kts | 142° |
| 2026-05-04 23:59 | 30.41340 | -82.71637 | 35086 ft | 508 kts | 142° |
| 2026-05-05 00:00 | 30.36230 | -82.66032 | 35109 ft | 508 kts | 142° |
| 2026-05-05 00:00 | 30.31099 | -82.60395 | 35113 ft | 508 kts | 142° |
| 2026-05-05 00:01 | 30.25980 | -82.54766 | 35119 ft | 503 kts | 142° |
| 2026-05-05 00:01 | 30.23474 | -82.52000 | 35111 ft | 492 kts | 142° |
| 2026-05-05 00:01 | 30.20990 | -82.49285 | 35121 ft | 494 kts | 142° |
| 2026-05-05 00:02 | 30.16038 | -82.43945 | 35091 ft | 487 kts | 142° |
| 2026-05-05 00:02 | 30.13522 | -82.41348 | 34862 ft | 483 kts | 144° |
| 2026-05-05 00:02 | 30.10817 | -82.39104 | 34331 ft | 474 kts | 159° |
| 2026-05-05 00:02 | 30.07854 | -82.37490 | 33680 ft | 467 kts | 166° |
| 2026-05-05 00:03 | 30.04825 | -82.36184 | 33033 ft | 462 kts | 169° |
| 2026-05-05 00:03 | 30.01789 | -82.35026 | 32447 ft | 457 kts | 171° |
| 2026-05-05 00:03 | 29.98736 | -82.34108 | 31890 ft | 447 kts | 176° |
| 2026-05-05 00:03 | 29.95736 | -82.33436 | 31361 ft | 441 kts | 179° |
| 2026-05-05 00:04 | 29.92721 | -82.32856 | 30978 ft | 437 kts | 180° |
| 2026-05-05 00:04 | 29.89710 | -82.32315 | 30356 ft | 436 kts | 180° |
| 2026-05-05 00:04 | 29.86699 | -82.31796 | 29431 ft | 439 kts | 180° |
| 2026-05-05 00:04 | 29.83668 | -82.31302 | 28601 ft | 439 kts | 180° |
| 2026-05-05 00:05 | 29.80641 | -82.30832 | 27855 ft | 437 kts | 180° |
| 2026-05-05 00:05 | 29.77627 | -82.30373 | 27156 ft | 435 kts | 179° |
| 2026-05-05 00:05 | 29.74670 | -82.29870 | 26507 ft | 433 kts | 178° |
| 2026-05-05 00:05 | 29.71666 | -82.29290 | 25831 ft | 432 kts | 176° |
| 2026-05-05 00:06 | 29.68743 | -82.28673 | 24996 ft | 434 kts | 175° |
| 2026-05-05 00:06 | 29.65747 | -82.28033 | 24046 ft | 439 kts | 175° |
| 2026-05-05 00:06 | 29.62736 | -82.27369 | 23116 ft | 441 kts | 174° |
| 2026-05-05 00:06 | 29.59731 | -82.26672 | 22198 ft | 440 kts | 173° |
| 2026-05-05 00:07 | 29.56739 | -82.25951 | 21363 ft | 437 kts | 172° |
| 2026-05-05 00:07 | 29.53772 | -82.25231 | 20593 ft | 433 kts | 172° |
| 2026-05-05 00:07 | 29.50834 | -82.24525 | 19847 ft | 428 kts | 172° |
| 2026-05-05 00:07 | 29.47930 | -82.23837 | 19140 ft | 423 kts | 172° |
| 2026-05-05 00:08 | 29.45063 | -82.23170 | 18546 ft | 418 kts | 172° |
| 2026-05-05 00:08 | 29.42214 | -82.22519 | 18277 ft | 416 kts | 172° |
| 2026-05-05 00:08 | 29.39368 | -82.21877 | 18261 ft | 418 kts | 172° |
| 2026-05-05 00:08 | 29.36506 | -82.21238 | 18264 ft | 418 kts | 172° |
| 2026-05-05 00:09 | 29.33683 | -82.20609 | 18265 ft | 418 kts | 172° |
| 2026-05-05 00:09 | 29.30837 | -82.19875 | 18246 ft | 420 kts | 168° |
| 2026-05-05 00:09 | 29.28029 | -82.18928 | 18152 ft | 421 kts | 166° |
| 2026-05-05 00:09 | 29.25242 | -82.17857 | 17345 ft | 423 kts | 163° |
| 2026-05-05 00:10 | 29.22475 | -82.16690 | 16379 ft | 424 kts | 162° |
| 2026-05-05 00:10 | 29.19723 | -82.15506 | 15489 ft | 421 kts | 161° |
| 2026-05-05 00:10 | 29.16986 | -82.14317 | 14660 ft | 417 kts | 161° |
| 2026-05-05 00:10 | 29.14301 | -82.13101 | 13851 ft | 413 kts | 160° |
| 2026-05-05 00:11 | 29.11648 | -82.11881 | 13015 ft | 408 kts | 160° |
| 2026-05-05 00:11 | 29.09087 | -82.10699 | 12471 ft | 396 kts | 160° |
| 2026-05-05 00:11 | 29.06541 | -82.09515 | 12024 ft | 383 kts | 160° |
| 2026-05-05 00:11 | 29.04150 | -82.08390 | 11726 ft | 368 kts | 160° |
| 2026-05-05 00:12 | 29.01827 | -82.07285 | 11435 ft | 355 kts | 160° |
| 2026-05-05 00:12 | 28.99601 | -82.06148 | 11070 ft | 347 kts | 153° |
| 2026-05-05 00:12 | 28.97663 | -82.04532 | 10999 ft | 344 kts | 142° |
| 2026-05-05 00:12 | 28.95917 | -82.02649 | 10996 ft | 345 kts | 136° |
| 2026-05-05 00:13 | 28.94277 | -82.00639 | 10992 ft | 345 kts | 134° |
| 2026-05-05 00:13 | 28.92674 | -81.98598 | 10990 ft | 345 kts | 134° |
| 2026-05-05 00:13 | 28.91084 | -81.96551 | 10992 ft | 345 kts | 133° |
| 2026-05-05 00:13 | 28.89494 | -81.94497 | 10991 ft | 344 kts | 133° |
| 2026-05-05 00:14 | 28.87922 | -81.92476 | 10986 ft | 344 kts | 135° |
| 2026-05-05 00:14 | 28.86199 | -81.90536 | 10987 ft | 343 kts | 139° |
| 2026-05-05 00:14 | 28.84480 | -81.88700 | 10986 ft | 343 kts | 139° |
| 2026-05-05 00:14 | 28.82728 | -81.86845 | 11000 ft | 342 kts | 139° |
| 2026-05-05 00:15 | 28.81023 | -81.85042 | 10999 ft | 326 kts | 139° |
| 2026-05-05 00:15 | 28.79376 | -81.83297 | 10788 ft | 320 kts | 139° |
| 2026-05-05 00:15 | 28.77751 | -81.81581 | 10581 ft | 316 kts | 142° |
| 2026-05-05 00:15 | 28.75972 | -81.80158 | 10356 ft | 310 kts | 154° |
| 2026-05-05 00:16 | 28.73993 | -81.79281 | 10122 ft | 303 kts | 168° |
| 2026-05-05 00:16 | 28.71975 | -81.78755 | 9878 ft | 300 kts | 172° |
| 2026-05-05 00:16 | 28.69958 | -81.78312 | 9178 ft | 289 kts | 173° |
| 2026-05-05 00:16 | 28.67945 | -81.77908 | 8040 ft | 291 kts | 173° |
| 2026-05-05 00:17 | 28.65968 | -81.77535 | 7355 ft | 290 kts | 173° |
| 2026-05-05 00:17 | 28.63981 | -81.77174 | 7034 ft | 286 kts | 173° |
| 2026-05-05 00:17 | 28.62068 | -81.76830 | 7010 ft | 271 kts | 173° |
| 2026-05-05 00:17 | 28.60327 | -81.76510 | 6922 ft | 237 kts | 173° |
| 2026-05-05 00:18 | 28.59286 | -81.76314 | 6719 ft | 224 kts | 174° |
| 2026-05-05 00:18 | 28.57763 | -81.76027 | 6206 ft | 219 kts | 173° |
| 2026-05-05 00:18 | 28.55858 | -81.75665 | 5979 ft | 200 kts | 173° |
| 2026-05-05 00:18 | 28.54927 | -81.75393 | 6009 ft | 213 kts | 158° |
| 2026-05-05 00:19 | 28.53580 | -81.74624 | 5851 ft | 223 kts | 153° |
| 2026-05-05 00:19 | 28.52223 | -81.73757 | 5368 ft | 223 kts | 152° |
| 2026-05-05 00:19 | 28.50871 | -81.72898 | 4815 ft | 221 kts | 152° |
| 2026-05-05 00:19 | 28.49521 | -81.72071 | 4224 ft | 218 kts | 152° |
| 2026-05-05 00:20 | 28.48184 | -81.71293 | 3691 ft | 212 kts | 151° |
| 2026-05-05 00:20 | 28.46867 | -81.70566 | 3114 ft | 207 kts | 149° |
| 2026-05-05 00:20 | 28.45853 | -81.69486 | 2534 ft | 202 kts | 111° |
| 2026-05-05 00:20 | 28.45508 | -81.67962 | 2408 ft | 198 kts | 97° |
| 2026-05-05 00:21 | 28.45384 | -81.66413 | 2253 ft | 196 kts | 94° |
| 2026-05-05 00:21 | 28.45309 | -81.64891 | 2051 ft | 195 kts | 93° |
| 2026-05-05 00:21 | 28.45221 | -81.63379 | 2016 ft | 191 kts | 93° |
| 2026-05-05 00:21 | 28.45127 | -81.61808 | 2018 ft | 204 kts | 93° |
| 2026-05-05 00:22 | 28.45046 | -81.60204 | 2013 ft | 203 kts | 91° |
| 2026-05-05 00:22 | 28.45093 | -81.58601 | 2022 ft | 204 kts | 84° |
| 2026-05-05 00:22 | 28.45418 | -81.57019 | 2021 ft | 207 kts | 71° |
| 2026-05-05 00:22 | 28.45984 | -81.55521 | 2023 ft | 205 kts | 67° |
| 2026-05-05 00:23 | 28.46588 | -81.54046 | 2029 ft | 208 kts | 67° |
| 2026-05-05 00:23 | 28.47172 | -81.52547 | 2021 ft | 206 kts | 69° |
| 2026-05-05 00:23 | 28.47738 | -81.51059 | 2020 ft | 204 kts | 68° |
| 2026-05-05 00:23 | 28.48304 | -81.49575 | 2028 ft | 201 kts | 68° |
| 2026-05-05 00:24 | 28.48825 | -81.48224 | 2011 ft | 175 kts | 69° |
| 2026-05-05 00:24 | 28.49302 | -81.46978 | 2024 ft | 166 kts | 69° |
| 2026-05-05 00:24 | 28.49742 | -81.45822 | 2011 ft | 164 kts | 69° |
| 2026-05-05 00:24 | 28.50193 | -81.44644 | 2005 ft | 160 kts | 69° |
| 2026-05-05 00:25 | 28.50633 | -81.43492 | 1889 ft | 158 kts | 69° |
| 2026-05-05 00:25 | 28.51068 | -81.42355 | 1684 ft | 157 kts | 69° |
| 2026-05-05 00:25 | 28.51471 | -81.41304 | 1475 ft | 130 kts | 69° |
| 2026-05-05 00:25 | 28.51827 | -81.40373 | 1320 ft | 132 kts | 69° |
| 2026-05-05 00:26 | 28.52189 | -81.39424 | 1145 ft | 129 kts | 66° |
| 2026-05-05 00:26 | 28.52541 | -81.38481 | 983 ft | 130 kts | 68° |
| 2026-05-05 00:26 | 28.52938 | -81.37548 | 802 ft | 132 kts | 67° |
| 2026-05-05 00:26 | 28.53312 | -81.36595 | 661 ft | 133 kts | 69° |
| 2026-05-05 00:27 | 28.53643 | -81.35629 | 455 ft | 131 kts | 70° |
| 2026-05-05 00:27 | 28.54000 | -81.34678 | 302 ft | 130 kts | 71° |
| 2026-05-05 00:27 | 28.54358 | -81.33730 | 138 ft | 131 kts | 70° |
| 2026-05-05 00:27 | 28.54662 | -81.32926 | 120 ft | 80 kts | 65° |
| 2026-05-05 00:28 | 28.54823 | -81.32507 | 122 ft | 39 kts | 65° |
| 2026-05-05 00:28 | 28.54892 | -81.32344 | 124 ft | 17 kts | 58° |
| 2026-05-05 00:28 | 28.54968 | -81.32316 | 123 ft | 6 kts | 341° |
| 2026-05-05 00:28 | 28.54970 | -81.32317 | 123 ft | 0 kts | 340° |
| 2026-05-05 00:29 | 28.54977 | -81.32320 | 126 ft | 3 kts | 339° |
| 2026-05-05 00:29 | 28.55017 | -81.32368 | 122 ft | 13 kts | 276° |
| 2026-05-05 00:29 | 28.54971 | -81.32510 | 121 ft | 25 kts | 246° |
| 2026-05-05 00:30 | 28.54914 | -81.32690 | 118 ft | 15 kts | 283° |
| 2026-05-05 00:30 | 28.54961 | -81.32730 | 119 ft | 0 kts | 333° |